sensor_id;sensor_type;location;lat;lon;timestamp;pressure;altitude;pressure_sealevel;temperature;humidity
17060;BME280;8646;49.716;9.266;2024-03-02T00:01:40;99190.25;;;6.74;88.96
17060;BME280;8646;49.716;9.266;2024-03-02T00:04:44;99140.56;;;6.43;88.84
17060;BME280;8646;49.716;9.266;2024-03-02T00:07:53;99197.53;;;6.72;89.17
17060;BME280;8646;49.716;9.266;2024-03-02T00:10:59;99194.97;;;6.69;88.79
17060;BME280;8646;49.716;9.266;2024-03-02T00:14:02;99196.06;;;6.65;88.79
17060;BME280;8646;49.716;9.266;2024-03-02T00:17:07;99187.19;;;6.63;88.86
17060;BME280;8646;49.716;9.266;2024-03-02T00:20:17;99190.16;;;6.57;89.06
17060;BME280;8646;49.716;9.266;2024-03-02T00:23:21;99191.97;;;6.56;88.93
17060;BME280;8646;49.716;9.266;2024-03-02T00:26:25;99192.97;;;6.54;88.88
17060;BME280;8646;49.716;9.266;2024-03-02T00:29:29;99155.63;;;6.47;89.05
17060;BME280;8646;49.716;9.266;2024-03-02T00:32:32;99185.25;;;6.46;89.52
17060;BME280;8646;49.716;9.266;2024-03-02T00:35:36;99185.75;;;6.34;89.83
17060;BME280;8646;49.716;9.266;2024-03-02T00:38:46;99178.84;;;6.28;89.78
17060;BME280;8646;49.716;9.266;2024-03-02T00:41:50;99186.09;;;6.26;90.01
17060;BME280;8646;49.716;9.266;2024-03-02T00:44:53;99195.25;;;6.22;89.80
17060;BME280;8646;49.716;9.266;2024-03-02T00:47:56;99197.13;;;6.20;89.44
17060;BME280;8646;49.716;9.266;2024-03-02T00:50:58;99206.09;;;6.19;89.26
17060;BME280;8646;49.716;9.266;2024-03-02T00:54:03;99198.31;;;6.13;89.08
17060;BME280;8646;49.716;9.266;2024-03-02T00:57:10;99199.25;;;6.12;89.17
17060;BME280;8646;49.716;9.266;2024-03-02T01:00:15;99192.13;;;6.11;89.06
17060;BME280;8646;49.716;9.266;2024-03-02T01:03:19;99195.91;;;6.07;89.23
17060;BME280;8646;49.716;9.266;2024-03-02T01:06:22;99186.47;;;5.97;89.63
17060;BME280;8646;49.716;9.266;2024-03-02T01:09:25;99198.16;;;5.96;89.82
17060;BME280;8646;49.716;9.266;2024-03-02T01:12:30;99146.91;;;5.58;89.97
17060;BME280;8646;49.716;9.266;2024-03-02T01:15:33;99199.13;;;5.93;89.67
17060;BME280;8646;49.716;9.266;2024-03-02T01:18:36;99191.78;;;5.98;90.07
17060;BME280;8646;49.716;9.266;2024-03-02T01:21:39;99191.22;;;5.90;90.29
17060;BME280;8646;49.716;9.266;2024-03-02T01:24:42;99183.31;;;5.86;90.47
17060;BME280;8646;49.716;9.266;2024-03-02T01:27:46;99184.47;;;5.80;90.17
17060;BME280;8646;49.716;9.266;2024-03-02T01:30:51;99181.16;;;5.73;90.33
17060;BME280;8646;49.716;9.266;2024-03-02T01:33:53;99179.50;;;5.69;90.35
17060;BME280;8646;49.716;9.266;2024-03-02T01:36:56;99189.56;;;5.64;90.43
17060;BME280;8646;49.716;9.266;2024-03-02T01:39:59;99191.38;;;5.64;90.66
17060;BME280;8646;49.716;9.266;2024-03-02T01:43:04;99170.34;;;5.53;90.63
17060;BME280;8646;49.716;9.266;2024-03-02T01:46:06;99179.09;;;5.58;90.87
17060;BME280;8646;49.716;9.266;2024-03-02T01:49:10;99190.72;;;5.59;91.02
17060;BME280;8646;49.716;9.266;2024-03-02T01:52:13;99193.63;;;5.53;91.18
17060;BME280;8646;49.716;9.266;2024-03-02T01:55:16;99190.19;;;5.49;90.79
17060;BME280;8646;49.716;9.266;2024-03-02T01:58:20;99195.56;;;5.49;90.75
17060;BME280;8646;49.716;9.266;2024-03-02T02:01:22;99181.44;;;5.44;91.05
17060;BME280;8646;49.716;9.266;2024-03-02T02:04:25;99185.09;;;5.43;90.80
17060;BME280;8646;49.716;9.266;2024-03-02T02:07:29;99184.25;;;5.41;90.84
17060;BME280;8646;49.716;9.266;2024-03-02T02:10:32;99186.03;;;5.42;90.90
17060;BME280;8646;49.716;9.266;2024-03-02T02:13:36;99172.97;;;5.33;90.79
17060;BME280;8646;49.716;9.266;2024-03-02T02:16:39;99176.56;;;5.32;91.10
17060;BME280;8646;49.716;9.266;2024-03-02T02:19:42;99131.03;;;5.09;91.49
17060;BME280;8646;49.716;9.266;2024-03-02T02:22:59;99181.19;;;5.28;91.34
17060;BME280;8646;49.716;9.266;2024-03-02T02:26:03;99178.75;;;5.22;91.15
17060;BME280;8646;49.716;9.266;2024-03-02T02:29:06;99172.56;;;5.20;91.23
17060;BME280;8646;49.716;9.266;2024-03-02T02:32:09;99169.47;;;5.31;92.09
17060;BME280;8646;49.716;9.266;2024-03-02T02:35:12;99178.94;;;5.18;92.06
17060;BME280;8646;49.716;9.266;2024-03-02T02:38:16;99173.88;;;5.10;92.13
17060;BME280;8646;49.716;9.266;2024-03-02T02:41:21;99164.22;;;5.05;92.33
17060;BME280;8646;49.716;9.266;2024-03-02T02:44:23;99172.53;;;4.98;92.92
17060;BME280;8646;49.716;9.266;2024-03-02T02:47:26;99174.31;;;4.98;92.75
17060;BME280;8646;49.716;9.266;2024-03-02T02:50:30;99170.03;;;4.94;92.88
17060;BME280;8646;49.716;9.266;2024-03-02T02:53:34;99162.97;;;4.91;93.16
17060;BME280;8646;49.716;9.266;2024-03-02T02:56:41;99149.66;;;4.88;93.15
17060;BME280;8646;49.716;9.266;2024-03-02T02:59:44;99098.06;;;4.60;93.02
17060;BME280;8646;49.716;9.266;2024-03-02T03:02:49;99079.75;;;4.48;93.62
17060;BME280;8646;49.716;9.266;2024-03-02T03:05:52;99153.44;;;5.06;94.17
17060;BME280;8646;49.716;9.266;2024-03-02T03:08:56;99151.69;;;5.05;94.52
17060;BME280;8646;49.716;9.266;2024-03-02T03:11:59;99142.97;;;5.00;95.41
17060;BME280;8646;49.716;9.266;2024-03-02T03:15:03;99142.94;;;4.78;95.29
17060;BME280;8646;49.716;9.266;2024-03-02T03:18:08;99154.28;;;4.85;95.25
17060;BME280;8646;49.716;9.266;2024-03-02T03:21:12;99155.63;;;4.73;95.22
17060;BME280;8646;49.716;9.266;2024-03-02T03:24:16;99166.66;;;4.64;95.42
17060;BME280;8646;49.716;9.266;2024-03-02T03:27:19;99165.06;;;4.60;95.44
17060;BME280;8646;49.716;9.266;2024-03-02T03:30:22;99159.94;;;4.54;95.38
17060;BME280;8646;49.716;9.266;2024-03-02T03:33:25;99171.63;;;4.51;95.58
17060;BME280;8646;49.716;9.266;2024-03-02T03:36:27;99159.38;;;4.44;95.25
17060;BME280;8646;49.716;9.266;2024-03-02T03:39:33;99179.00;;;4.45;95.26
17060;BME280;8646;49.716;9.266;2024-03-02T03:42:37;99163.88;;;4.44;95.47
17060;BME280;8646;49.716;9.266;2024-03-02T03:45:41;99164.88;;;4.40;95.46
17060;BME280;8646;49.716;9.266;2024-03-02T03:48:44;99174.81;;;4.38;95.37
17060;BME280;8646;49.716;9.266;2024-03-02T03:51:46;99171.16;;;4.39;94.91
17060;BME280;8646;49.716;9.266;2024-03-02T03:54:51;99173.06;;;4.37;95.01
17060;BME280;8646;49.716;9.266;2024-03-02T03:57:54;99164.19;;;4.35;94.98
17060;BME280;8646;49.716;9.266;2024-03-02T04:00:57;99171.31;;;4.36;95.09
17060;BME280;8646;49.716;9.266;2024-03-02T04:04:00;99175.81;;;4.34;95.19
17060;BME280;8646;49.716;9.266;2024-03-02T04:07:03;99155.22;;;4.36;94.96
17060;BME280;8646;49.716;9.266;2024-03-02T04:10:09;99109.84;;;4.06;95.33
17060;BME280;8646;49.716;9.266;2024-03-02T04:13:14;99166.81;;;4.36;95.34
17060;BME280;8646;49.716;9.266;2024-03-02T04:16:17;99164.09;;;4.38;94.92
17060;BME280;8646;49.716;9.266;2024-03-02T04:19:19;99162.22;;;4.40;94.61
17060;BME280;8646;49.716;9.266;2024-03-02T04:22:22;99164.84;;;4.41;94.82
17060;BME280;8646;49.716;9.266;2024-03-02T04:25:27;99161.34;;;4.39;94.84
17060;BME280;8646;49.716;9.266;2024-03-02T04:28:30;99169.44;;;4.38;95.33
17060;BME280;8646;49.716;9.266;2024-03-02T04:31:33;99171.13;;;4.40;95.79
17060;BME280;8646;49.716;9.266;2024-03-02T04:34:35;99167.25;;;4.49;96.14
17060;BME280;8646;49.716;9.266;2024-03-02T04:37:38;99155.97;;;4.39;96.25
17060;BME280;8646;49.716;9.266;2024-03-02T04:40:42;99164.50;;;4.50;96.25
17060;BME280;8646;49.716;9.266;2024-03-02T04:43:45;99163.09;;;4.40;96.59
17060;BME280;8646;49.716;9.266;2024-03-02T04:46:48;99164.59;;;4.47;96.68
17060;BME280;8646;49.716;9.266;2024-03-02T04:49:51;99135.00;;;4.27;97.04
17060;BME280;8646;49.716;9.266;2024-03-02T04:52:54;99163.72;;;4.47;96.70
17060;BME280;8646;49.716;9.266;2024-03-02T04:55:58;99162.09;;;4.43;96.92
17060;BME280;8646;49.716;9.266;2024-03-02T04:59:21;99165.53;;;4.46;97.02
17060;BME280;8646;49.716;9.266;2024-03-02T05:02:24;99163.41;;;4.56;96.66
17060;BME280;8646;49.716;9.266;2024-03-02T05:05:27;99156.81;;;4.65;96.84
17060;BME280;8646;49.716;9.266;2024-03-02T05:08:30;99163.41;;;4.79;97.46
17060;BME280;8646;49.716;9.266;2024-03-02T05:11:34;99156.69;;;4.92;97.76
17060;BME280;8646;49.716;9.266;2024-03-02T05:15:05;99153.69;;;5.00;98.43
17060;BME280;8646;49.716;9.266;2024-03-02T05:18:08;99156.47;;;5.20;98.26
17060;BME280;8646;49.716;9.266;2024-03-02T05:21:11;99164.03;;;5.11;99.47
17060;BME280;8646;49.716;9.266;2024-03-02T05:24:14;99166.88;;;5.06;100.00
17060;BME280;8646;49.716;9.266;2024-03-02T05:27:18;99174.28;;;4.99;100.00
17060;BME280;8646;49.716;9.266;2024-03-02T05:30:21;99169.59;;;4.81;100.00
17060;BME280;8646;49.716;9.266;2024-03-02T05:33:24;99182.31;;;4.99;100.00
17060;BME280;8646;49.716;9.266;2024-03-02T05:36:27;99176.38;;;4.91;100.00
17060;BME280;8646;49.716;9.266;2024-03-02T05:39:29;99187.72;;;4.75;100.00
17060;BME280;8646;49.716;9.266;2024-03-02T05:42:34;99190.44;;;4.73;100.00
17060;BME280;8646;49.716;9.266;2024-03-02T05:45:36;99196.47;;;4.80;100.00
17060;BME280;8646;49.716;9.266;2024-03-02T05:48:39;99186.63;;;4.80;100.00
17060;BME280;8646;49.716;9.266;2024-03-02T05:51:42;99191.25;;;5.00;100.00
17060;BME280;8646;49.716;9.266;2024-03-02T05:54:45;99193.88;;;5.02;100.00
17060;BME280;8646;49.716;9.266;2024-03-02T05:57:49;99201.91;;;5.02;100.00
17060;BME280;8646;49.716;9.266;2024-03-02T06:01:04;99200.84;;;5.06;100.00
17060;BME280;8646;49.716;9.266;2024-03-02T06:04:07;99198.00;;;5.10;100.00
17060;BME280;8646;49.716;9.266;2024-03-02T06:07:10;99195.47;;;5.29;100.00
17060;BME280;8646;49.716;9.266;2024-03-02T06:10:13;99196.41;;;5.28;100.00
17060;BME280;8646;49.716;9.266;2024-03-02T06:13:17;99203.50;;;5.29;100.00
17060;BME280;8646;49.716;9.266;2024-03-02T06:16:20;99201.66;;;5.31;100.00
17060;BME280;8646;49.716;9.266;2024-03-02T06:19:22;99215.28;;;5.48;100.00
17060;BME280;8646;49.716;9.266;2024-03-02T06:22:25;99214.25;;;5.29;100.00
17060;BME280;8646;49.716;9.266;2024-03-02T06:25:28;99224.97;;;5.29;100.00
17060;BME280;8646;49.716;9.266;2024-03-02T06:28:32;99211.41;;;5.55;100.00
17060;BME280;8646;49.716;9.266;2024-03-02T06:31:35;99215.91;;;5.76;100.00
17060;BME280;8646;49.716;9.266;2024-03-02T06:34:37;99224.66;;;5.82;100.00
17060;BME280;8646;49.716;9.266;2024-03-02T06:37:40;99218.22;;;5.86;100.00
17060;BME280;8646;49.716;9.266;2024-03-02T06:40:43;99224.53;;;5.85;100.00
17060;BME280;8646;49.716;9.266;2024-03-02T06:43:47;99220.31;;;6.01;98.04
17060;BME280;8646;49.716;9.266;2024-03-02T06:46:49;99224.53;;;5.85;98.40
17060;BME280;8646;49.716;9.266;2024-03-02T06:49:52;99227.53;;;5.77;99.05
17060;BME280;8646;49.716;9.266;2024-03-02T06:52:55;99222.91;;;5.81;99.05
17060;BME280;8646;49.716;9.266;2024-03-02T06:55:58;99224.22;;;5.70;98.80
17060;BME280;8646;49.716;9.266;2024-03-02T06:59:02;99217.97;;;5.70;99.02
17060;BME280;8646;49.716;9.266;2024-03-02T07:02:05;99223.53;;;5.65;99.92
17060;BME280;8646;49.716;9.266;2024-03-02T07:05:10;99216.88;;;5.75;99.43
17060;BME280;8646;49.716;9.266;2024-03-02T07:08:13;99215.78;;;5.80;99.64
17060;BME280;8646;49.716;9.266;2024-03-02T07:11:16;99218.09;;;5.90;98.58
17060;BME280;8646;49.716;9.266;2024-03-02T07:14:20;99218.16;;;5.87;98.62
17060;BME280;8646;49.716;9.266;2024-03-02T07:17:23;99210.94;;;6.11;97.88
17060;BME280;8646;49.716;9.266;2024-03-02T07:20:26;99211.84;;;5.90;98.35
17060;BME280;8646;49.716;9.266;2024-03-02T07:23:29;99223.25;;;5.95;98.58
17060;BME280;8646;49.716;9.266;2024-03-02T07:26:33;99221.81;;;6.08;98.16
17060;BME280;8646;49.716;9.266;2024-03-02T07:29:40;99220.81;;;6.10;97.77
17060;BME280;8646;49.716;9.266;2024-03-02T07:32:42;99223.69;;;6.06;97.77
17060;BME280;8646;49.716;9.266;2024-03-02T07:35:47;99217.44;;;6.05;98.45
17060;BME280;8646;49.716;9.266;2024-03-02T07:38:50;99218.03;;;5.92;98.81
17060;BME280;8646;49.716;9.266;2024-03-02T07:41:53;99221.00;;;6.06;98.85
17060;BME280;8646;49.716;9.266;2024-03-02T07:44:57;99221.03;;;6.26;97.77
17060;BME280;8646;49.716;9.266;2024-03-02T07:48:01;99217.59;;;6.23;98.32
17060;BME280;8646;49.716;9.266;2024-03-02T07:51:05;99209.56;;;6.23;98.36
17060;BME280;8646;49.716;9.266;2024-03-02T07:54:08;99154.72;;;5.85;98.23
17060;BME280;8646;49.716;9.266;2024-03-02T07:57:11;99221.19;;;6.23;98.83
17060;BME280;8646;49.716;9.266;2024-03-02T08:00:15;99214.66;;;6.29;98.09
17060;BME280;8646;49.716;9.266;2024-03-02T08:03:18;99227.22;;;6.28;98.72
17060;BME280;8646;49.716;9.266;2024-03-02T08:06:21;99235.50;;;6.44;98.68
17060;BME280;8646;49.716;9.266;2024-03-02T08:09:24;99212.84;;;6.49;98.08
17060;BME280;8646;49.716;9.266;2024-03-02T08:12:27;99230.97;;;6.85;96.30
17060;BME280;8646;49.716;9.266;2024-03-02T08:15:31;99237.53;;;6.98;95.40
17060;BME280;8646;49.716;9.266;2024-03-02T08:18:34;99227.06;;;6.92;95.48
17060;BME280;8646;49.716;9.266;2024-03-02T08:21:37;99229.16;;;6.85;95.76
17060;BME280;8646;49.716;9.266;2024-03-02T08:24:40;99206.09;;;7.00;94.88
17060;BME280;8646;49.716;9.266;2024-03-02T08:27:43;99222.22;;;7.00;95.25
17060;BME280;8646;49.716;9.266;2024-03-02T08:30:47;99212.63;;;6.95;94.79
17060;BME280;8646;49.716;9.266;2024-03-02T08:33:50;99229.97;;;6.87;95.30
17060;BME280;8646;49.716;9.266;2024-03-02T08:36:53;99213.09;;;7.04;94.78
17060;BME280;8646;49.716;9.266;2024-03-02T08:39:56;99213.44;;;6.97;94.95
17060;BME280;8646;49.716;9.266;2024-03-02T08:42:58;99209.72;;;6.99;94.64
17060;BME280;8646;49.716;9.266;2024-03-02T08:46:03;99216.03;;;6.98;94.85
17060;BME280;8646;49.716;9.266;2024-03-02T08:49:06;99156.63;;;6.45;95.05
17060;BME280;8646;49.716;9.266;2024-03-02T08:52:09;99229.38;;;6.81;95.87
17060;BME280;8646;49.716;9.266;2024-03-02T08:55:12;99225.31;;;6.91;95.11
17060;BME280;8646;49.716;9.266;2024-03-02T08:58:14;99240.69;;;6.89;95.56
17060;BME280;8646;49.716;9.266;2024-03-02T09:01:20;99222.09;;;6.83;95.52
17060;BME280;8646;49.716;9.266;2024-03-02T09:04:23;99235.72;;;6.99;94.81
17060;BME280;8646;49.716;9.266;2024-03-02T09:07:28;99222.84;;;6.86;95.29
17060;BME280;8646;49.716;9.266;2024-03-02T09:10:31;99229.69;;;6.94;95.77
17060;BME280;8646;49.716;9.266;2024-03-02T09:13:34;99215.78;;;6.84;95.75
17060;BME280;8646;49.716;9.266;2024-03-02T09:16:38;99225.72;;;7.02;95.89
17060;BME280;8646;49.716;9.266;2024-03-02T09:19:41;99155.97;;;6.79;95.73
17060;BME280;8646;49.716;9.266;2024-03-02T09:22:44;99194.47;;;7.18;94.77
17060;BME280;8646;49.716;9.266;2024-03-02T09:25:48;99225.63;;;7.43;94.44
17060;BME280;8646;49.716;9.266;2024-03-02T09:28:51;99174.03;;;7.33;94.25
17060;BME280;8646;49.716;9.266;2024-03-02T09:31:55;99229.22;;;7.79;94.22
17060;BME280;8646;49.716;9.266;2024-03-02T09:34:58;99222.38;;;7.91;92.93
17060;BME280;8646;49.716;9.266;2024-03-02T09:38:01;99219.94;;;7.86;93.28
17060;BME280;8646;49.716;9.266;2024-03-02T09:41:05;99203.63;;;8.07;93.00
17060;BME280;8646;49.716;9.266;2024-03-02T09:44:08;99205.72;;;8.19;92.55
17060;BME280;8646;49.716;9.266;2024-03-02T09:47:12;99198.78;;;8.32;91.67
17060;BME280;8646;49.716;9.266;2024-03-02T09:50:15;99201.09;;;8.39;91.00
17060;BME280;8646;49.716;9.266;2024-03-02T09:53:18;99206.41;;;8.41;91.69
17060;BME280;8646;49.716;9.266;2024-03-02T09:56:22;99195.78;;;8.55;91.83
17060;BME280;8646;49.716;9.266;2024-03-02T09:59:24;99187.88;;;8.68;91.02
17060;BME280;8646;49.716;9.266;2024-03-02T10:02:30;99184.50;;;8.64;91.21
17060;BME280;8646;49.716;9.266;2024-03-02T10:05:33;99201.63;;;8.80;90.80
17060;BME280;8646;49.716;9.266;2024-03-02T10:08:42;99171.00;;;8.82;89.98
17060;BME280;8646;49.716;9.266;2024-03-02T10:11:45;99183.38;;;9.01;90.36
17060;BME280;8646;49.716;9.266;2024-03-02T10:14:48;99177.25;;;9.15;90.59
17060;BME280;8646;49.716;9.266;2024-03-02T10:17:54;99168.84;;;9.37;88.67
17060;BME280;8646;49.716;9.266;2024-03-02T10:21:12;99166.06;;;9.38;89.18
17060;BME280;8646;49.716;9.266;2024-03-02T10:24:15;99164.31;;;9.69;87.65
17060;BME280;8646;49.716;9.266;2024-03-02T10:27:23;99168.41;;;9.76;86.64
17060;BME280;8646;49.716;9.266;2024-03-02T10:30:26;99154.25;;;10.02;84.67
17060;BME280;8646;49.716;9.266;2024-03-02T10:33:30;99151.81;;;10.13;83.38
17060;BME280;8646;49.716;9.266;2024-03-02T10:36:34;99106.47;;;9.73;84.42
17060;BME280;8646;49.716;9.266;2024-03-02T10:39:37;99148.47;;;10.24;83.02
17060;BME280;8646;49.716;9.266;2024-03-02T10:42:42;99149.38;;;10.39;81.48
17060;BME280;8646;49.716;9.266;2024-03-02T10:45:49;99135.69;;;10.56;81.04
17060;BME280;8646;49.716;9.266;2024-03-02T10:48:54;99107.50;;;10.46;81.04
17060;BME280;8646;49.716;9.266;2024-03-02T10:51:57;99133.53;;;10.77;81.21
17060;BME280;8646;49.716;9.266;2024-03-02T10:55:00;99124.13;;;10.96;79.43
17060;BME280;8646;49.716;9.266;2024-03-02T10:58:10;99103.84;;;11.03;78.39
17060;BME280;8646;49.716;9.266;2024-03-02T11:01:14;99109.53;;;11.13;77.58
17060;BME280;8646;49.716;9.266;2024-03-02T11:04:19;99084.00;;;11.17;76.91
17060;BME280;8646;49.716;9.266;2024-03-02T11:07:24;99092.38;;;11.41;76.08
17060;BME280;8646;49.716;9.266;2024-03-02T11:10:32;99086.56;;;11.47;75.79
17060;BME280;8646;49.716;9.266;2024-03-02T11:13:37;99097.56;;;11.58;75.38
17060;BME280;8646;49.716;9.266;2024-03-02T11:16:43;99079.13;;;11.77;74.33
17060;BME280;8646;49.716;9.266;2024-03-02T11:19:49;99089.69;;;11.95;73.58
17060;BME280;8646;49.716;9.266;2024-03-02T11:22:52;99076.41;;;12.04;72.69
17060;BME280;8646;49.716;9.266;2024-03-02T11:25:55;99079.31;;;12.01;73.74
17060;BME280;8646;49.716;9.266;2024-03-02T11:29:42;99076.41;;;12.17;74.60
17060;BME280;8646;49.716;9.266;2024-03-02T11:32:54;99079.81;;;12.33;74.17
17060;BME280;8646;49.716;9.266;2024-03-02T11:36:00;99068.75;;;12.49;73.28
17060;BME280;8646;49.716;9.266;2024-03-02T11:39:04;99052.38;;;12.88;68.82
17060;BME280;8646;49.716;9.266;2024-03-02T11:42:07;99045.19;;;12.75;70.05
17060;BME280;8646;49.716;9.266;2024-03-02T11:45:11;99029.47;;;12.80;70.25
17060;BME280;8646;49.716;9.266;2024-03-02T11:48:14;99036.69;;;13.05;69.67
17060;BME280;8646;49.716;9.266;2024-03-02T11:51:19;99034.94;;;13.29;67.79
17060;BME280;8646;49.716;9.266;2024-03-02T11:54:21;99026.06;;;13.38;67.35
17060;BME280;8646;49.716;9.266;2024-03-02T11:57:24;99023.25;;;13.40;68.21
17060;BME280;8646;49.716;9.266;2024-03-02T12:00:29;99012.38;;;13.63;66.24
17060;BME280;8646;49.716;9.266;2024-03-02T12:03:32;99019.16;;;13.58;67.54
17060;BME280;8646;49.716;9.266;2024-03-02T12:06:37;99012.81;;;13.70;66.35
17060;BME280;8646;49.716;9.266;2024-03-02T12:09:40;98992.59;;;13.85;63.91
17060;BME280;8646;49.716;9.266;2024-03-02T12:12:43;98991.91;;;13.94;62.25
17060;BME280;8646;49.716;9.266;2024-03-02T12:15:45;98988.22;;;14.06;61.58
17060;BME280;8646;49.716;9.266;2024-03-02T12:18:48;98983.53;;;14.20;58.32
17060;BME280;8646;49.716;9.266;2024-03-02T12:21:52;98971.16;;;14.16;58.59
17060;BME280;8646;49.716;9.266;2024-03-02T12:24:55;98970.19;;;14.28;59.82
17060;BME280;8646;49.716;9.266;2024-03-02T12:28:00;98978.19;;;14.42;60.09
17060;BME280;8646;49.716;9.266;2024-03-02T12:31:04;98965.69;;;14.62;57.77
17060;BME280;8646;49.716;9.266;2024-03-02T12:34:08;98963.09;;;14.49;59.81
17060;BME280;8646;49.716;9.266;2024-03-02T12:37:13;98949.97;;;14.54;56.71
17060;BME280;8646;49.716;9.266;2024-03-02T12:40:17;98952.69;;;14.54;56.64
17060;BME280;8646;49.716;9.266;2024-03-02T12:43:20;98938.34;;;14.63;55.86
17060;BME280;8646;49.716;9.266;2024-03-02T12:46:25;98937.84;;;14.69;54.95
17060;BME280;8646;49.716;9.266;2024-03-02T12:49:28;98926.69;;;14.72;53.96
17060;BME280;8646;49.716;9.266;2024-03-02T12:52:34;98928.06;;;14.78;53.16
17060;BME280;8646;49.716;9.266;2024-03-02T12:55:37;98933.84;;;14.84;52.99
17060;BME280;8646;49.716;9.266;2024-03-02T12:58:40;98937.84;;;14.92;52.34
17060;BME280;8646;49.716;9.266;2024-03-02T13:01:50;98900.47;;;14.82;51.77
17060;BME280;8646;49.716;9.266;2024-03-02T13:04:53;98930.38;;;14.94;52.44
17060;BME280;8646;49.716;9.266;2024-03-02T13:07:58;98931.59;;;15.01;52.94
17060;BME280;8646;49.716;9.266;2024-03-02T13:11:02;98930.38;;;15.05;53.28
17060;BME280;8646;49.716;9.266;2024-03-02T13:14:07;98921.81;;;15.09;53.28
17060;BME280;8646;49.716;9.266;2024-03-02T13:17:10;98920.69;;;15.12;53.88
17060;BME280;8646;49.716;9.266;2024-03-02T13:20:15;98917.34;;;15.08;53.64
17060;BME280;8646;49.716;9.266;2024-03-02T13:23:21;98914.25;;;15.13;52.25
17060;BME280;8646;49.716;9.266;2024-03-02T13:26:24;98905.09;;;15.14;52.07
17060;BME280;8646;49.716;9.266;2024-03-02T13:29:26;98907.81;;;15.14;52.12
17060;BME280;8646;49.716;9.266;2024-03-02T13:32:29;98902.25;;;15.15;52.86
17060;BME280;8646;49.716;9.266;2024-03-02T13:35:32;98905.56;;;15.19;52.84
17060;BME280;8646;49.716;9.266;2024-03-02T13:38:36;98879.81;;;15.12;51.10
17060;BME280;8646;49.716;9.266;2024-03-02T13:41:39;98890.69;;;15.23;50.74
17060;BME280;8646;49.716;9.266;2024-03-02T13:44:43;98889.72;;;15.24;50.43
17060;BME280;8646;49.716;9.266;2024-03-02T13:47:47;98885.81;;;15.38;49.46
17060;BME280;8646;49.716;9.266;2024-03-02T13:50:49;98878.22;;;15.41;50.17
17060;BME280;8646;49.716;9.266;2024-03-02T13:53:54;98873.25;;;15.46;50.60
17060;BME280;8646;49.716;9.266;2024-03-02T13:56:56;98884.13;;;15.57;50.01
17060;BME280;8646;49.716;9.266;2024-03-02T14:00:00;98881.88;;;15.62;50.16
17060;BME280;8646;49.716;9.266;2024-03-02T14:03:05;98869.50;;;15.58;48.98
17060;BME280;8646;49.716;9.266;2024-03-02T14:06:08;98871.44;;;15.68;48.29
17060;BME280;8646;49.716;9.266;2024-03-02T14:09:12;98863.75;;;15.73;47.17
17060;BME280;8646;49.716;9.266;2024-03-02T14:12:15;98859.84;;;15.75;47.39
17060;BME280;8646;49.716;9.266;2024-03-02T14:15:18;98860.59;;;15.77;47.64
17060;BME280;8646;49.716;9.266;2024-03-02T14:18:22;98858.47;;;15.81;47.58
17060;BME280;8646;49.716;9.266;2024-03-02T14:21:25;98859.47;;;15.80;46.94
17060;BME280;8646;49.716;9.266;2024-03-02T14:24:29;98858.94;;;15.86;46.52
17060;BME280;8646;49.716;9.266;2024-03-02T14:27:32;98863.38;;;15.87;47.19
17060;BME280;8646;49.716;9.266;2024-03-02T14:30:55;98866.84;;;15.89;47.83
17060;BME280;8646;49.716;9.266;2024-03-02T14:33:58;98838.91;;;15.76;47.55
17060;BME280;8646;49.716;9.266;2024-03-02T14:37:01;98862.66;;;15.85;46.91
17060;BME280;8646;49.716;9.266;2024-03-02T14:40:07;98854.72;;;15.82;47.31
17060;BME280;8646;49.716;9.266;2024-03-02T14:43:11;98851.13;;;15.81;46.36
17060;BME280;8646;49.716;9.266;2024-03-02T14:46:14;98842.38;;;15.78;46.08
17060;BME280;8646;49.716;9.266;2024-03-02T14:49:17;98841.31;;;15.69;45.50
17060;BME280;8646;49.716;9.266;2024-03-02T14:52:20;98843.63;;;15.74;45.59
17060;BME280;8646;49.716;9.266;2024-03-02T14:55:24;98842.91;;;15.72;45.28
17060;BME280;8646;49.716;9.266;2024-03-02T14:58:27;98835.84;;;15.69;45.00
17060;BME280;8646;49.716;9.266;2024-03-02T15:01:30;98790.28;;;15.39;45.03
17060;BME280;8646;49.716;9.266;2024-03-02T15:04:33;98825.63;;;15.61;43.86
17060;BME280;8646;49.716;9.266;2024-03-02T15:07:35;98820.72;;;15.55;44.08
17060;BME280;8646;49.716;9.266;2024-03-02T15:10:41;98816.47;;;15.51;44.55
17060;BME280;8646;49.716;9.266;2024-03-02T15:13:46;98820.47;;;15.47;44.73
17060;BME280;8646;49.716;9.266;2024-03-02T15:16:49;98817.13;;;15.44;44.81
17060;BME280;8646;49.716;9.266;2024-03-02T15:19:51;98804.91;;;15.38;44.85
17060;BME280;8646;49.716;9.266;2024-03-02T15:22:54;98805.56;;;15.31;44.51
17060;BME280;8646;49.716;9.266;2024-03-02T15:25:58;98808.22;;;15.21;44.74
17060;BME280;8646;49.716;9.266;2024-03-02T15:29:01;98796.22;;;15.12;44.59
17060;BME280;8646;49.716;9.266;2024-03-02T15:32:04;98809.84;;;15.12;45.02
17060;BME280;8646;49.716;9.266;2024-03-02T15:35:08;98799.09;;;15.11;45.33
17060;BME280;8646;49.716;9.266;2024-03-02T15:38:12;98799.81;;;15.13;44.88
17060;BME280;8646;49.716;9.266;2024-03-02T15:41:34;98799.56;;;15.16;45.29
17060;BME280;8646;49.716;9.266;2024-03-02T15:44:36;98799.28;;;15.19;44.82
17060;BME280;8646;49.716;9.266;2024-03-02T15:47:42;98796.19;;;15.23;45.24
17060;BME280;8646;49.716;9.266;2024-03-02T15:50:45;98795.31;;;15.23;45.23
17060;BME280;8646;49.716;9.266;2024-03-02T15:53:48;98794.66;;;15.31;45.64
17060;BME280;8646;49.716;9.266;2024-03-02T15:56:52;98802.72;;;15.32;45.64
17060;BME280;8646;49.716;9.266;2024-03-02T15:59:55;98801.44;;;15.36;45.56
17060;BME280;8646;49.716;9.266;2024-03-02T16:02:58;98635.16;;;14.32;46.05
17060;BME280;8646;49.716;9.266;2024-03-02T16:06:01;98794.25;;;15.35;46.91
17060;BME280;8646;49.716;9.266;2024-03-02T16:09:03;98800.69;;;15.34;47.08
17060;BME280;8646;49.716;9.266;2024-03-02T16:12:12;98796.53;;;15.30;47.29
17060;BME280;8646;49.716;9.266;2024-03-02T16:15:15;98803.50;;;15.23;47.72
17060;BME280;8646;49.716;9.266;2024-03-02T16:18:17;98806.50;;;15.09;48.46
17060;BME280;8646;49.716;9.266;2024-03-02T16:21:20;98794.47;;;14.91;49.08
17060;BME280;8646;49.716;9.266;2024-03-02T16:24:26;98809.59;;;14.83;49.55
17060;BME280;8646;49.716;9.266;2024-03-02T16:27:31;98802.56;;;14.70;49.83
17060;BME280;8646;49.716;9.266;2024-03-02T16:30:33;98802.47;;;14.60;50.32
17060;BME280;8646;49.716;9.266;2024-03-02T16:33:36;98799.78;;;14.49;50.70
17060;BME280;8646;49.716;9.266;2024-03-02T16:36:40;98807.91;;;14.38;51.23